Time;durP1;ratioP1;P1;durP2;ratioP2;P2;SDS_P1;SDS_P2;PMS_P1;PMS_P2;Temp;Humidity;BMP_temperature;BMP_pressure;BME280_temperature;BME280_humidity;BME280_pressure;Samples;Min_cycle;Max_cycle;Signal;HPM_P1;HPM_P2
2021/08/23 00:02:02;;;;;;;12.47;11.57;;;19.90;99.90;;;;;;5051400;28;20201;-66
2021/08/23 00:04:28;;;;;;;12.63;11.60;;;19.80;99.90;;;;;;5051875;28;20630;-66
2021/08/23 00:06:54;;;;;;;12.43;11.43;;;19.80;99.90;;;;;;5049554;28;20587;-66
2021/08/23 00:09:20;;;;;;;11.57;10.63;;;19.80;99.90;;;;;;5052215;28;20288;-66
2021/08/23 00:11:47;;;;;;;12.60;11.60;;;19.70;99.90;;;;;;5051630;28;20419;-66
2021/08/23 00:14:12;;;;;;;13.30;12.30;;;19.70;99.90;;;;;;5051946;28;20474;-65
2021/08/23 00:16:38;;;;;;;13.67;12.57;;;19.70;99.90;;;;;;5049191;28;20440;-66
2021/08/23 00:19:04;;;;;;;13.60;12.53;;;19.70;99.90;;;;;;5031371;28;20273;-66
2021/08/23 00:21:30;;;;;;;13.87;12.73;;;19.70;99.90;;;;;;5032279;28;20175;-66
2021/08/23 00:24:20;;;;;;;13.97;12.87;;;19.70;99.90;;;;;;5034571;28;20170;-66
2021/08/23 00:26:46;;;;;;;14.70;13.40;;;19.80;99.90;;;;;;5037590;28;20535;-66
2021/08/23 00:29:12;;;;;;;13.93;12.73;;;19.80;99.90;;;;;;5055141;28;20416;-66
2021/08/23 00:31:38;;;;;;;13.80;12.70;;;19.80;99.90;;;;;;5055238;28;20174;-66
2021/08/23 00:34:03;;;;;;;14.33;13.23;;;19.80;99.90;;;;;;5054631;28;20280;-66
2021/08/23 00:36:29;;;;;;;14.17;13.00;;;19.80;99.90;;;;;;5054570;28;20200;-66
2021/08/23 00:38:55;;;;;;;14.50;13.30;;;19.80;99.90;;;;;;5054497;28;20181;-65
2021/08/23 00:41:20;;;;;;;14.37;13.10;;;19.90;99.90;;;;;;5055108;28;20643;-66
2021/08/23 00:43:46;;;;;;;14.57;13.17;;;19.90;99.90;;;;;;5054190;28;20236;-66
2021/08/23 00:46:12;;;;;;;13.00;12.00;;;19.90;99.90;;;;;;5055026;28;20210;-66
2021/08/23 00:48:37;;;;;;;12.73;11.73;;;19.80;99.90;;;;;;5036692;28;20182;-66
2021/08/23 00:51:03;;;;;;;13.50;12.40;;;19.90;99.90;;;;;;5034409;28;21022;-66
2021/08/23 00:53:29;;;;;;;12.10;11.20;;;19.90;99.90;;;;;;5034899;28;20175;-66
2021/08/23 00:55:55;;;;;;;12.90;11.70;;;19.80;99.90;;;;;;5034213;28;20204;-66
2021/08/23 00:58:21;;;;;;;12.87;11.77;;;19.70;99.90;;;;;;5050022;28;20596;-66
2021/08/23 01:00:56;;;;;;;12.30;11.37;;;19.70;99.90;;;;;;5054005;28;20499;-66
2021/08/23 01:03:37;;;;;;;12.73;11.70;;;19.60;99.90;;;;;;5054402;28;20406;-65
2021/08/23 01:06:05;;;;;;;13.37;12.27;;;19.60;99.90;;;;;;5054002;28;20389;-66
2021/08/23 01:08:41;;;;;;;12.77;11.70;;;19.60;99.90;;;;;;5037678;28;20486;-66
2021/08/23 01:11:12;;;;;;;12.70;11.57;;;19.50;99.90;;;;;;5034037;28;20452;-66
2021/08/23 01:13:45;;;;;;;14.20;13.00;;;19.40;99.90;;;;;;5034290;28;20873;-65
2021/08/23 01:16:11;;;;;;;13.60;12.40;;;19.40;99.90;;;;;;5034668;28;20408;-66
2021/08/23 01:18:37;;;;;;;12.90;11.70;;;19.40;99.90;;;;;;5051257;28;20514;-66
2021/08/23 01:21:06;;;;;;;13.43;12.40;;;19.30;99.90;;;;;;5053720;28;20178;-66
2021/08/23 01:23:40;;;;;;;14.87;13.67;;;19.30;99.90;;;;;;5054348;28;20453;-66
2021/08/23 01:26:06;;;;;;;12.90;11.80;;;19.20;99.90;;;;;;5053651;28;21250;-66
2021/08/23 01:29:04;;;;;;;14.80;13.60;;;19.20;99.90;;;;;;5037770;28;20433;-66
2021/08/23 01:32:06;;;;;;;13.40;12.40;;;19.20;99.90;;;;;;5016435;28;20520;-66
2021/08/23 01:34:33;;;;;;;14.17;12.97;;;19.20;99.90;;;;;;5006300;28;20429;-65
2021/08/23 01:37:01;;;;;;;13.43;12.33;;;19.10;99.90;;;;;;5036375;28;20412;-66
2021/08/23 01:39:26;;;;;;;13.90;12.80;;;19.20;99.90;;;;;;5053969;28;20409;-66
2021/08/23 01:41:52;;;;;;;13.90;12.80;;;19.10;99.90;;;;;;5053306;28;20396;-66
2021/08/23 01:44:18;;;;;;;14.17;12.97;;;19.10;99.90;;;;;;5053530;28;20221;-66
2021/08/23 01:46:43;;;;;;;15.53;14.33;;;19.10;99.90;;;;;;5052032;28;20213;-67
2021/08/23 01:49:10;;;;;;;16.27;14.77;;;19.10;99.90;;;;;;5053203;28;20213;-66
2021/08/23 01:51:36;;;;;;;15.97;14.67;;;19.10;99.90;;;;;;5053762;28;20260;-66
2021/08/23 01:54:02;;;;;;;14.37;13.07;;;19.10;99.90;;;;;;5053099;28;20408;-66
2021/08/23 01:56:29;;;;;;;17.77;12.83;;;19.10;99.90;;;;;;5053650;28;20419;-65
2021/08/23 01:58:55;;;;;;;14.00;12.80;;;19.10;99.90;;;;;;5033479;28;20474;-66
2021/08/23 02:01:21;;;;;;;15.37;14.07;;;19.10;99.90;;;;;;5033634;28;20409;-66
2021/08/23 02:03:48;;;;;;;14.93;13.63;;;19.10;99.90;;;;;;5033323;28;20493;-66
2021/08/23 02:06:14;;;;;;;15.17;13.83;;;19.10;99.90;;;;;;5033475;28;20246;-66
2021/08/23 02:08:40;;;;;;;14.50;13.30;;;19.10;99.90;;;;;;5033725;28;20515;-66
2021/08/23 02:11:06;;;;;;;14.93;13.63;;;19.10;99.90;;;;;;5032860;28;20508;-66
2021/08/23 02:13:31;;;;;;;15.80;14.20;;;19.10;99.90;;;;;;5033024;28;20539;-66
2021/08/23 02:15:57;;;;;;;14.53;13.33;;;19.20;99.90;;;;;;5032861;28;20185;-66
2021/08/23 02:18:23;;;;;;;14.93;13.73;;;19.20;99.90;;;;;;5033360;28;20634;-66
2021/08/23 02:20:49;;;;;;;15.53;14.13;;;19.20;99.90;;;;;;5050987;28;20188;-66
2021/08/23 02:23:14;;;;;;;14.23;13.03;;;19.20;99.90;;;;;;5053151;28;20182;-66
2021/08/23 02:25:40;;;;;;;13.97;12.70;;;19.20;99.90;;;;;;5053089;28;20182;-66
2021/08/23 02:28:06;;;;;;;15.23;13.73;;;19.30;99.90;;;;;;5052087;28;20228;-66
2021/08/23 02:30:32;;;;;;;15.53;13.73;;;19.30;99.90;;;;;;5052593;28;20178;-66
2021/08/23 02:32:58;;;;;;;16.13;14.40;;;19.30;99.90;;;;;;5052587;28;20428;-66
2021/08/23 02:35:24;;;;;;;15.73;14.33;;;19.30;99.90;;;;;;5052891;28;20209;-66
2021/08/23 02:37:49;;;;;;;14.80;13.50;;;19.30;99.90;;;;;;5052893;28;20451;-66
2021/08/23 02:40:15;;;;;;;14.33;13.10;;;19.30;99.90;;;;;;5052901;28;20185;-66
2021/08/23 02:42:41;;;;;;;15.57;14.30;;;19.40;99.90;;;;;;5052211;28;20400;-66
2021/08/23 02:45:07;;;;;;;16.10;14.70;;;19.40;99.90;;;;;;5051381;28;20301;-66
2021/08/23 02:47:36;;;;;;;15.80;14.30;;;19.40;99.90;;;;;;5052712;28;20213;-66
2021/08/23 02:50:06;;;;;;;16.50;15.10;;;19.40;99.90;;;;;;5052402;28;20404;-66
2021/08/23 02:52:32;;;;;;;17.73;15.93;;;19.50;99.90;;;;;;5052774;28;20393;-65
2021/08/23 02:54:58;;;;;;;17.57;15.97;;;19.50;99.90;;;;;;5048613;28;20452;-66
2021/08/23 02:57:24;;;;;;;20.30;18.47;;;19.50;99.90;;;;;;5032707;28;20433;-66
2021/08/23 02:59:49;;;;;;;19.43;17.63;;;19.50;99.90;;;;;;5032626;28;20240;-66
2021/08/23 03:02:15;;;;;;;19.50;17.77;;;19.60;99.90;;;;;;5032027;28;20174;-66
2021/08/23 03:04:41;;;;;;;20.33;18.53;;;19.60;99.90;;;;;;5032729;28;20182;-66
2021/08/23 03:07:06;;;;;;;19.27;17.37;;;19.60;99.90;;;;;;5033381;28;20202;-66
2021/08/23 03:09:32;;;;;;;17.83;16.03;;;19.60;99.90;;;;;;5052488;28;20186;-66
2021/08/23 03:11:58;;;;;;;17.33;15.73;;;19.60;99.90;;;;;;5051882;28;20227;-66
2021/08/23 03:14:24;;;;;;;17.07;15.40;;;19.60;99.90;;;;;;5048836;28;20661;-66
2021/08/23 03:16:50;;;;;;;17.33;15.73;;;19.60;99.90;;;;;;5032538;28;20421;-66
2021/08/23 03:19:16;;;;;;;18.30;16.70;;;19.70;99.90;;;;;;5031621;28;20897;-66
2021/08/23 03:21:42;;;;;;;17.80;16.30;;;19.60;99.90;;;;;;5032485;28;20408;-66
2021/08/23 03:24:07;;;;;;;18.30;16.60;;;19.60;99.90;;;;;;5031828;28;20174;-66
2021/08/23 03:26:33;;;;;;;18.83;16.93;;;19.60;99.90;;;;;;5051474;28;20224;-66
2021/08/23 03:28:59;;;;;;;18.50;16.70;;;19.60;99.90;;;;;;5051782;28;20538;-66
2021/08/23 03:31:25;;;;;;;18.50;16.43;;;19.60;99.90;;;;;;5052310;28;20426;-66
2021/08/23 03:33:51;;;;;;;16.97;15.47;;;19.60;99.90;;;;;;5052333;28;20275;-66
2021/08/23 03:36:16;;;;;;;17.17;15.67;;;19.60;99.90;;;;;;5051235;28;20185;-66
2021/08/23 03:38:42;;;;;;;18.10;16.50;;;19.60;99.90;;;;;;5032319;28;20257;-65
2021/08/23 03:41:10;;;;;;;17.50;15.83;;;19.60;99.90;;;;;;5031612;28;20179;-66
2021/08/23 03:43:36;;;;;;;17.83;16.13;;;19.60;99.90;;;;;;5032035;28;20404;-66
2021/08/23 03:46:01;;;;;;;16.63;15.17;;;19.60;99.90;;;;;;5031633;28;20881;-66
2021/08/23 03:48:27;;;;;;;17.10;15.30;;;19.60;99.90;;;;;;5032164;28;20191;-67
2021/08/23 03:50:53;;;;;;;15.60;14.10;;;19.60;99.90;;;;;;5051628;28;20178;-66
2021/08/23 03:53:18;;;;;;;16.03;14.63;;;19.60;99.90;;;;;;5033372;28;20695;-66
2021/08/23 03:55:44;;;;;;;15.70;14.40;;;19.60;99.90;;;;;;5052869;28;20181;-66
2021/08/23 03:58:10;;;;;;;14.47;13.10;;;19.60;99.90;;;;;;5055306;28;20178;-66
2021/08/23 04:00:35;;;;;;;15.63;14.13;;;19.60;99.90;;;;;;5056234;28;20174;-65
2021/08/23 04:03:01;;;;;;;14.63;13.20;;;19.70;99.90;;;;;;5037091;28;20218;-65
2021/08/23 04:05:27;;;;;;;14.50;13.03;;;19.60;99.90;;;;;;5035904;28;20178;-66
2021/08/23 04:07:53;;;;;;;15.43;14.03;;;19.70;99.90;;;;;;5035758;28;20284;-65
2021/08/23 04:10:19;;;;;;;15.30;13.87;;;19.70;99.90;;;;;;5035150;28;20178;-65
2021/08/23 04:12:45;;;;;;;16.37;14.87;;;19.60;99.90;;;;;;5035434;28;20532;-65
2021/08/23 04:15:11;;;;;;;16.50;14.87;;;19.70;99.90;;;;;;5054111;28;20542;-66
2021/08/23 04:17:36;;;;;;;15.87;14.47;;;19.60;99.90;;;;;;5055575;28;20268;-66
2021/08/23 04:20:04;;;;;;;17.10;15.50;;;19.70;99.90;;;;;;5054882;28;20174;-67
2021/08/23 04:22:29;;;;;;;17.80;16.20;;;19.70;99.90;;;;;;5055454;28;20174;-65
2021/08/23 04:24:55;;;;;;;18.67;16.97;;;19.70;99.90;;;;;;5055313;28;20399;-66
2021/08/23 04:27:21;;;;;;;18.10;16.53;;;19.70;99.90;;;;;;5036431;28;20204;-66
2021/08/23 04:29:47;;;;;;;17.53;15.77;;;19.70;99.90;;;;;;5055370;28;20781;-66
2021/08/23 04:32:13;;;;;;;18.50;16.90;;;19.70;99.90;;;;;;5054667;28;20173;-66
2021/08/23 04:34:38;;;;;;;19.90;18.00;;;19.70;99.90;;;;;;5055208;28;20614;-65
2021/08/23 04:37:04;;;;;;;20.47;18.67;;;19.70;99.90;;;;;;5053800;28;20173;-66
2021/08/23 04:39:34;;;;;;;20.17;18.30;;;19.70;99.90;;;;;;5035276;28;20210;-66
2021/08/23 04:42:00;;;;;;;19.10;17.30;;;19.70;99.90;;;;;;5034520;28;20432;-67
2021/08/23 04:44:27;;;;;;;19.50;17.53;;;19.70;99.90;;;;;;5035019;28;20493;-66
2021/08/23 04:46:52;;;;;;;20.50;18.57;;;19.70;99.90;;;;;;5034697;28;20818;-65
2021/08/23 04:49:18;;;;;;;20.70;18.63;;;19.70;99.90;;;;;;5037103;28;20421;-66
2021/08/23 04:51:44;;;;;;;19.53;17.57;;;19.70;99.90;;;;;;5054835;28;20213;-66
2021/08/23 04:54:10;;;;;;;22.50;20.30;;;19.70;99.90;;;;;;5054224;28;20864;-66
2021/08/23 04:56:36;;;;;;;19.93;17.83;;;19.70;99.90;;;;;;5054788;28;20653;-65
2021/08/23 04:59:02;;;;;;;18.83;16.93;;;19.70;99.90;;;;;;5053846;28;20637;-66
2021/08/23 05:01:28;;;;;;;23.60;21.20;;;19.70;99.90;;;;;;5048230;28;20413;-66
2021/08/23 05:03:54;;;;;;;24.60;21.97;;;19.80;99.90;;;;;;5044098;28;20428;-66
2021/08/23 05:06:19;;;;;;;26.50;23.60;;;19.80;99.90;;;;;;5035305;28;20537;-66
2021/08/23 05:08:45;;;;;;;28.53;20.90;;;19.90;99.90;;;;;;5033919;28;20174;-66
2021/08/23 05:11:11;;;;;;;21.37;18.20;;;20.10;99.90;;;;;;5034005;28;20189;-66
2021/08/23 05:13:37;;;;;;;27.67;22.07;;;20.30;99.90;;;;;;5043687;28;20196;-66
2021/08/23 05:16:03;;;;;;;25.53;22.17;;;20.40;99.90;;;;;;5053775;28;20412;-66
2021/08/23 05:18:29;;;;;;;24.73;20.77;;;20.60;99.90;;;;;;5044487;28;20445;-66
2021/08/23 05:20:56;;;;;;;25.70;22.17;;;20.70;99.90;;;;;;5034444;28;20404;-66
2021/08/23 05:23:22;;;;;;;25.00;22.30;;;20.80;99.90;;;;;;5033703;28;20451;-66
2021/08/23 05:25:47;;;;;;;23.70;20.93;;;20.90;99.90;;;;;;5034258;28;20417;-66
2021/08/23 05:28:13;;;;;;;25.63;21.80;;;20.90;99.90;;;;;;5033313;28;20288;-66
2021/08/23 05:30:39;;;;;;;25.33;22.63;;;21.00;99.90;;;;;;5034641;28;20644;-66
2021/08/23 05:33:05;;;;;;;24.87;21.47;;;21.10;99.90;;;;;;5043797;28;20177;-67
2021/08/23 05:35:31;;;;;;;23.07;20.67;;;21.10;99.90;;;;;;5053787;28;20182;-66
2021/08/23 05:37:57;;;;;;;22.97;20.50;;;21.20;99.90;;;;;;5036357;28;20263;-66
2021/08/23 05:40:23;;;;;;;23.87;20.80;;;21.30;99.90;;;;;;5033398;28;20402;-66
2021/08/23 05:42:52;;;;;;;16.13;14.40;;;21.30;99.90;;;;;;5033861;28;20232;-66
2021/08/23 05:45:19;;;;;;;23.00;20.67;;;21.30;99.90;;;;;;5032151;28;20784;-66
2021/08/23 05:47:45;;;;;;;20.63;18.07;;;21.40;99.90;;;;;;5042504;28;20467;-69
2021/08/23 05:50:11;;;;;;;26.07;21.97;;;21.40;99.90;;;;;;5047555;28;20895;-67
2021/08/23 05:52:36;;;;;;;24.10;21.70;;;21.50;99.90;;;;;;5015554;28;20424;-67
2021/08/23 05:55:02;;;;;;;22.33;19.93;;;21.40;99.90;;;;;;5038354;28;20177;-67
2021/08/23 05:57:28;;;;;;;21.90;19.60;;;21.50;99.90;;;;;;5034129;28;20182;-66
2021/08/23 05:59:55;;;;;;;20.20;18.20;;;21.50;99.90;;;;;;5033701;28;20421;-66
2021/08/23 06:02:20;;;;;;;12.93;11.93;;;21.50;99.90;;;;;;5032815;28;20428;-66
2021/08/23 06:04:46;;;;;;;21.10;19.00;;;21.60;99.90;;;;;;5049020;28;20416;-66
2021/08/23 06:07:14;;;;;;;19.20;17.30;;;21.60;99.90;;;;;;5052579;28;20605;-66
2021/08/23 06:09:40;;;;;;;20.93;18.93;;;21.70;99.90;;;;;;5029253;28;20182;-66
2021/08/23 06:12:06;;;;;;;20.13;18.23;;;21.70;99.90;;;;;;5032991;28;20488;-67
2021/08/23 06:14:32;;;;;;;13.40;12.20;;;21.80;99.90;;;;;;5038365;28;20420;-66
2021/08/23 06:16:58;;;;;;;21.30;19.20;;;21.80;99.90;;;;;;5053319;28;20412;-65
2021/08/23 06:19:24;;;;;;;22.30;19.93;;;21.80;99.90;;;;;;5033542;28;20479;-63
2021/08/23 06:21:49;;;;;;;19.80;17.90;;;21.80;99.90;;;;;;5033646;28;20668;-67
2021/08/23 06:24:15;;;;;;;22.40;20.20;;;21.60;99.90;;;;;;5032488;28;20163;-67
2021/08/23 06:26:41;;;;;;;16.53;14.93;;;21.50;99.90;;;;;;5034197;28;20544;-67
2021/08/23 06:29:08;;;;;;;19.87;17.83;;;21.50;99.90;;;;;;5032643;28;20200;-68
2021/08/23 06:31:34;;;;;;;20.70;18.80;;;21.50;99.90;;;;;;5043488;28;20191;-67
2021/08/23 06:34:00;;;;;;;12.90;11.73;;;21.50;99.90;;;;;;5024979;28;20503;-67
2021/08/23 06:36:26;;;;;;;18.60;16.80;;;21.40;99.90;;;;;;5036347;28;20409;-67
2021/08/23 06:38:52;;;;;;;19.23;17.27;;;21.40;99.90;;;;;;5019836;28;20427;-71
2021/08/23 06:41:19;;;;;;;18.57;16.87;;;21.40;99.90;;;;;;5043906;28;20173;-67
2021/08/23 06:43:46;;;;;;;20.00;17.93;;;21.40;99.90;;;;;;5033995;28;20216;-68
2021/08/23 06:46:12;;;;;;;18.57;16.83;;;21.40;99.90;;;;;;5039159;28;20412;-68
2021/08/23 06:48:38;;;;;;;19.37;17.30;;;21.40;99.90;;;;;;5052189;28;20509;-66
2021/08/23 06:51:04;;;;;;;19.90;17.57;;;21.40;99.90;;;;;;5037814;28;20425;-70
2021/08/23 06:53:30;;;;;;;19.00;17.30;;;21.30;99.90;;;;;;5031708;28;20189;-66
2021/08/23 06:55:56;;;;;;;17.73;16.10;;;21.20;99.90;;;;;;5032421;28;20179;-66
2021/08/23 06:58:21;;;;;;;20.33;18.27;;;21.10;99.90;;;;;;5031728;28;20638;-66
2021/08/23 07:00:47;;;;;;;19.83;17.90;;;20.90;99.90;;;;;;5043692;28;20587;-66
2021/08/23 07:03:13;;;;;;;17.07;15.47;;;20.90;99.90;;;;;;5031925;28;20170;-66
2021/08/23 07:05:38;;;;;;;16.67;15.07;;;20.80;99.90;;;;;;5045410;28;20178;-69
2021/08/23 07:08:05;;;;;;;17.70;16.00;;;20.60;99.90;;;;;;5052090;28;20301;-66
2021/08/23 07:10:31;;;;;;;18.07;15.30;;;20.60;99.90;;;;;;5052435;28;20177;-66
2021/08/23 07:12:56;;;;;;;19.13;17.33;;;20.40;99.90;;;;;;5032839;28;20417;-67
2021/08/23 07:15:22;;;;;;;16.53;14.93;;;20.40;99.90;;;;;;5031416;28;20277;-66
2021/08/23 07:17:47;;;;;;;17.20;15.53;;;20.30;99.90;;;;;;5014928;28;20311;-66
2021/08/23 07:20:13;;;;;;;15.53;14.13;;;20.20;99.90;;;;;;5047487;28;20178;-66
2021/08/23 07:22:39;;;;;;;17.53;15.60;;;20.20;99.90;;;;;;5052078;28;20311;-66
2021/08/23 07:25:06;;;;;;;16.83;15.23;;;20.10;99.90;;;;;;5052387;28;20170;-66
2021/08/23 07:27:32;;;;;;;16.50;15.00;;;20.00;99.90;;;;;;5052232;28;20193;-66
2021/08/23 07:29:59;;;;;;;16.77;15.07;;;20.00;99.90;;;;;;5050339;28;20424;-66
2021/08/23 07:32:25;;;;;;;15.90;14.37;;;20.00;99.90;;;;;;5054594;28;20466;-66
2021/08/23 07:34:51;;;;;;;16.33;14.83;;;20.00;99.90;;;;;;5036361;28;20412;-67
2021/08/23 07:37:17;;;;;;;16.43;14.93;;;20.00;99.90;;;;;;5042233;28;20489;-66
2021/08/23 07:39:43;;;;;;;15.37;13.90;;;19.90;99.90;;;;;;5056272;28;20174;-66
2021/08/23 07:42:10;;;;;;;17.17;15.57;;;19.90;99.90;;;;;;5055583;28;20495;-67
2021/08/23 07:44:35;;;;;;;16.07;14.47;;;19.80;99.90;;;;;;5055733;28;20503;-66
2021/08/23 07:47:01;;;;;;;14.07;12.77;;;19.80;99.90;;;;;;5056162;28;20480;-66
2021/08/23 07:49:27;;;;;;;16.10;14.57;;;19.80;99.90;;;;;;5054569;28;20491;-66
2021/08/23 07:51:53;;;;;;;17.20;15.60;;;19.80;99.90;;;;;;5047344;28;20185;-66
2021/08/23 07:54:19;;;;;;;17.97;16.23;;;19.80;99.90;;;;;;5034733;28;20409;-66
2021/08/23 07:56:45;;;;;;;17.63;15.77;;;19.80;99.90;;;;;;5044286;28;20177;-66
2021/08/23 07:59:11;;;;;;;15.33;14.03;;;19.80;99.90;;;;;;5038858;28;20647;-67
2021/08/23 08:01:37;;;;;;;15.40;14.00;;;19.80;99.90;;;;;;5035667;28;20424;-66
2021/08/23 08:04:03;;;;;;;16.47;14.83;;;19.70;99.90;;;;;;5035878;28;20186;-66
2021/08/23 08:06:28;;;;;;;16.30;14.80;;;19.70;99.90;;;;;;5035480;28;20550;-66
2021/08/23 08:08:54;;;;;;;15.53;13.93;;;19.70;99.90;;;;;;5035705;28;20413;-66
2021/08/23 08:11:20;;;;;;;15.77;12.93;;;19.80;99.90;;;;;;5037298;28;20607;-66
2021/08/23 08:13:47;;;;;;;14.17;12.80;;;19.70;99.90;;;;;;5049714;28;20424;-66
2021/08/23 08:16:13;;;;;;;13.47;12.27;;;19.80;99.90;;;;;;5041439;28;20413;-66
2021/08/23 08:18:39;;;;;;;10.47;9.57;;;19.80;99.90;;;;;;5030756;28;20409;-66
2021/08/23 08:21:04;;;;;;;13.93;12.60;;;19.80;99.90;;;;;;5035495;28;20404;-66
2021/08/23 08:23:31;;;;;;;15.57;14.10;;;19.80;99.90;;;;;;5034863;28;20170;-66
2021/08/23 08:25:57;;;;;;;15.90;14.40;;;19.80;99.90;;;;;;5018681;28;20178;-67
2021/08/23 08:28:23;;;;;;;16.83;15.10;;;19.90;99.90;;;;;;5035778;28;20436;-66
2021/08/23 08:30:49;;;;;;;14.80;13.40;;;19.90;99.90;;;;;;5046040;28;20425;-65
2021/08/23 08:33:15;;;;;;;13.93;12.63;;;19.90;99.90;;;;;;5034461;28;20603;-66
2021/08/23 08:35:42;;;;;;;14.97;13.57;;;19.80;99.90;;;;;;5048610;28;20806;-66
2021/08/23 08:38:08;;;;;;;13.60;12.40;;;19.80;99.90;;;;;;5055084;28;20412;-66
2021/08/23 08:40:34;;;;;;;15.30;13.90;;;19.80;99.90;;;;;;5053640;28;20389;-66
2021/08/23 08:43:06;;;;;;;16.47;14.77;;;19.70;99.90;;;;;;5053268;28;20730;-66
2021/08/23 08:45:31;;;;;;;14.37;13.10;;;19.70;99.90;;;;;;5054053;28;20479;-66
2021/08/23 08:48:02;;;;;;;14.23;13.03;;;19.70;99.90;;;;;;5040354;28;20456;-67
2021/08/23 08:50:30;;;;;;;14.83;13.60;;;19.80;99.90;;;;;;5034511;28;20245;-65
2021/08/23 08:52:56;;;;;;;14.73;13.43;;;19.70;99.90;;;;;;5035047;28;20500;-64
2021/08/23 08:55:22;;;;;;;15.40;14.00;;;19.70;99.90;;;;;;5034577;28;20843;-63
2021/08/23 08:57:47;;;;;;;15.37;14.03;;;19.60;99.90;;;;;;5045663;28;20205;-63
2021/08/23 09:00:14;;;;;;;17.93;16.30;;;19.60;99.90;;;;;;5054209;28;20181;-64
2021/08/23 09:02:39;;;;;;;16.60;15.00;;;19.60;99.90;;;;;;5051667;28;20224;-63
2021/08/23 09:05:18;;;;;;;14.93;13.53;;;19.50;99.90;;;;;;5034960;28;20417;-63
2021/08/23 09:07:50;;;;;;;14.93;13.67;;;19.50;99.90;;;;;;5034796;28;20209;-63
2021/08/23 09:10:22;;;;;;;16.67;15.13;;;19.50;99.90;;;;;;5033964;28;20417;-63
2021/08/23 09:12:59;;;;;;;14.97;13.50;;;19.50;99.90;;;;;;5034759;28;20394;-63
2021/08/23 09:15:25;;;;;;;15.10;13.60;;;19.50;99.90;;;;;;5033836;28;20416;-63
2021/08/23 09:18:03;;;;;;;13.20;12.00;;;19.60;99.90;;;;;;5044780;28;20439;-63
2021/08/23 09:20:30;;;;;;;15.67;14.27;;;19.60;99.90;;;;;;5016285;28;20163;-63
2021/08/23 09:23:10;;;;;;;15.73;14.10;;;19.70;99.90;;;;;;5037252;28;20416;-64
2021/08/23 09:25:36;;;;;;;14.73;13.33;;;19.80;99.90;;;;;;5053337;28;20416;-64
2021/08/23 09:28:03;;;;;;;14.07;12.73;;;19.80;99.90;;;;;;5053905;28;20456;-64
2021/08/23 09:30:29;;;;;;;14.00;12.73;;;19.80;99.90;;;;;;5053601;28;20206;-64
2021/08/23 09:32:57;;;;;;;15.60;13.30;;;19.80;99.90;;;;;;5047414;28;20456;-64
2021/08/23 09:35:30;;;;;;;13.67;12.47;;;19.90;99.90;;;;;;5033605;28;20533;-64
2021/08/23 09:37:56;;;;;;;14.87;13.50;;;19.90;99.90;;;;;;5034586;28;20439;-66
2021/08/23 09:40:30;;;;;;;15.83;14.33;;;19.90;99.90;;;;;;5033326;28;20493;-64
2021/08/23 09:43:08;;;;;;;16.80;15.20;;;20.00;99.90;;;;;;5034097;28;20433;-64
2021/08/23 09:45:33;;;;;;;16.57;15.03;;;20.00;99.90;;;;;;5035625;28;20495;-64
2021/08/23 09:48:05;;;;;;;14.70;13.20;;;20.00;99.90;;;;;;5053793;28;20546;-64
2021/08/23 09:50:48;;;;;;;15.20;13.80;;;20.00;99.90;;;;;;5035205;28;20174;-64
2021/08/23 09:53:21;;;;;;;15.03;13.63;;;20.00;99.90;;;;;;5053434;28;20888;-64
2021/08/23 09:55:50;;;;;;;17.20;15.60;;;20.00;99.90;;;;;;5049033;28;20421;-63
2021/08/23 09:58:16;;;;;;;17.33;15.60;;;20.00;99.90;;;;;;5033198;28;20448;-64
2021/08/23 10:00:43;;;;;;;15.93;14.47;;;20.00;99.90;;;;;;5033535;28;20441;-64
2021/08/23 10:03:14;;;;;;;16.03;14.53;;;20.00;99.90;;;;;;5033339;28;20417;-64
2021/08/23 10:05:49;;;;;;;18.03;16.23;;;20.10;99.90;;;;;;5033033;28;20385;-64
2021/08/23 10:08:17;;;;;;;19.10;17.30;;;20.10;99.90;;;;;;5033457;28;20531;-63
2021/08/23 10:10:44;;;;;;;18.07;16.37;;;20.10;99.90;;;;;;5033273;28;20401;-64
2021/08/23 10:13:10;;;;;;;17.83;15.93;;;20.20;99.90;;;;;;5033624;28;20492;-64
2021/08/23 10:15:39;;;;;;;16.47;14.80;;;20.30;99.90;;;;;;5033032;28;20690;-64
2021/08/23 10:18:06;;;;;;;16.13;14.63;;;20.30;99.90;;;;;;5033329;28;20890;-64
2021/08/23 10:20:32;;;;;;;15.33;13.93;;;20.30;99.90;;;;;;5015159;28;20413;-64
2021/08/23 10:22:59;;;;;;;15.83;14.10;;;20.40;99.90;;;;;;5033403;28;20425;-63
2021/08/23 10:25:25;;;;;;;16.43;14.80;;;20.40;99.90;;;;;;5032692;28;21023;-64
2021/08/23 10:28:02;;;;;;;18.10;16.30;;;20.50;99.90;;;;;;5033313;28;20812;-64
2021/08/23 10:30:28;;;;;;;18.10;16.20;;;20.50;99.90;;;;;;5032582;28;20401;-64
2021/08/23 10:32:53;;;;;;;16.60;15.00;;;20.40;99.90;;;;;;5033213;28;20397;-64
2021/08/23 10:35:22;;;;;;;16.37;14.77;;;20.40;99.90;;;;;;5032447;28;20189;-64
2021/08/23 10:37:49;;;;;;;16.90;15.40;;;20.40;99.90;;;;;;5033144;28;20520;-64
2021/08/23 10:40:16;;;;;;;18.73;16.40;;;20.40;99.90;;;;;;5033025;28;20412;-64
2021/08/23 10:42:47;;;;;;;16.83;15.13;;;20.30;99.90;;;;;;5032324;28;20397;-64
2021/08/23 10:45:17;;;;;;;17.37;15.60;;;20.30;99.90;;;;;;5032350;28;20456;-64
2021/08/23 10:47:46;;;;;;;19.60;17.70;;;20.40;99.90;;;;;;5031755;28;20995;-64
2021/08/23 10:50:20;;;;;;;17.57;15.97;;;20.40;99.90;;;;;;5032453;28;20504;-64
2021/08/23 10:52:48;;;;;;;18.90;17.17;;;20.40;99.90;;;;;;5032307;28;20762;-63
2021/08/23 10:55:28;;;;;;;17.50;15.80;;;20.40;99.90;;;;;;5032335;28;20837;-64
2021/08/23 10:58:05;;;;;;;18.53;16.73;;;20.40;99.90;;;;;;5032533;28;20385;-64
2021/08/23 11:00:41;;;;;;;17.77;16.03;;;20.30;99.90;;;;;;5030673;28;20488;-64
2021/08/23 11:03:09;;;;;;;19.40;17.50;;;20.30;99.90;;;;;;5032631;28;21011;-63
2021/08/23 11:05:36;;;;;;;18.97;17.23;;;20.30;99.90;;;;;;5031353;28;20405;-64
2021/08/23 11:08:09;;;;;;;19.53;17.50;;;20.40;99.90;;;;;;5032235;28;20494;-64
2021/08/23 11:10:39;;;;;;;18.60;16.73;;;20.40;99.90;;;;;;5032006;28;20898;-65
2021/08/23 11:13:16;;;;;;;17.20;15.50;;;20.50;99.90;;;;;;5032252;28;20466;-63
2021/08/23 11:15:44;;;;;;;17.73;15.93;;;20.60;99.90;;;;;;5031669;28;20456;-64
2021/08/23 11:18:15;;;;;;;17.70;16.00;;;20.70;99.90;;;;;;5032553;28;20440;-64
2021/08/23 11:20:48;;;;;;;18.87;15.13;;;20.90;99.90;;;;;;5031372;28;20420;-64
2021/08/23 11:23:27;;;;;;;18.47;16.67;;;21.00;99.90;;;;;;5031921;28;20393;-64
2021/08/23 11:25:58;;;;;;;19.07;17.10;;;21.20;99.90;;;;;;5014603;28;20776;-64
2021/08/23 11:28:30;;;;;;;21.17;18.97;;;21.20;99.90;;;;;;5031613;28;20441;-67
2021/08/23 11:30:58;;;;;;;18.97;17.07;;;21.30;99.90;;;;;;5032199;28;20432;-64
2021/08/23 11:33:26;;;;;;;17.33;15.83;;;21.30;99.90;;;;;;5031331;28;20877;-66
2021/08/23 11:35:52;;;;;;;16.80;15.20;;;21.30;99.90;;;;;;5032231;28;20409;-64
2021/08/23 11:38:18;;;;;;;16.10;14.63;;;21.30;99.90;;;;;;5032514;28;20405;-64
2021/08/23 11:40:45;;;;;;;17.87;16.27;;;21.20;99.90;;;;;;5031799;28;20409;-64
2021/08/23 11:43:11;;;;;;;17.73;16.10;;;21.20;99.90;;;;;;5032340;28;20170;-64
2021/08/23 11:45:43;;;;;;;16.80;15.20;;;21.20;99.90;;;;;;5031508;28;20587;-64
2021/08/23 11:48:10;;;;;;;16.43;14.93;;;21.10;99.90;;;;;;5032236;28;20448;-64
2021/08/23 11:50:36;;;;;;;16.60;15.20;;;21.10;99.90;;;;;;5031649;28;20428;-64
2021/08/23 11:53:05;;;;;;;17.23;15.50;;;21.10;99.90;;;;;;5032231;28;20413;-64
2021/08/23 11:55:33;;;;;;;16.40;14.80;;;21.00;99.90;;;;;;5031305;28;20877;-64
2021/08/23 11:58:20;;;;;;;16.40;14.90;;;21.00;99.90;;;;;;5032268;28;20409;-63
2021/08/23 12:01:00;;;;;;;16.40;14.90;;;21.00;99.90;;;;;;5014059;28;20386;-64
2021/08/23 12:03:25;;;;;;;15.30;14.00;;;21.00;99.90;;;;;;5014048;28;20385;-64
2021/08/23 12:05:51;;;;;;;19.00;17.17;;;21.10;99.90;;;;;;5032060;28;20394;-64
2021/08/23 12:08:25;;;;;;;17.07;15.37;;;21.10;99.90;;;;;;5031984;28;20203;-63
2021/08/23 12:11:02;;;;;;;18.90;17.10;;;21.20;99.90;;;;;;5032065;28;20265;-64
2021/08/23 12:13:48;;;;;;;16.30;14.80;;;21.20;99.90;;;;;;5031430;28;20409;-64
2021/08/23 12:16:38;;;;;;;16.40;14.90;;;21.20;99.90;;;;;;5032110;28;20416;-64
2021/08/23 12:19:08;;;;;;;15.77;14.27;;;21.20;99.90;;;;;;5035384;28;20429;-64
2021/08/23 12:21:35;;;;;;;16.13;14.63;;;21.10;99.90;;;;;;5034958;28;20405;-64
2021/08/23 12:24:14;;;;;;;17.43;15.73;;;21.10;99.90;;;;;;5035625;28;20393;-63
2021/08/23 12:26:54;;;;;;;15.90;14.40;;;21.10;99.90;;;;;;5035148;28;20456;-64
2021/08/23 12:29:24;;;;;;;16.67;15.13;;;21.10;99.90;;;;;;5035399;28;20419;-63
2021/08/23 12:31:52;;;;;;;16.07;14.67;;;21.10;99.90;;;;;;5034831;28;20416;-64